Latest Weather Observations for Kowanyama

IDQ60801

Issued at 7:05 pm EST Saturday 19 April 2014 (issued every 30 minutes, with the page automatically refreshed every 10 minutes)

About weather observations | Map of weather stations | Latest weather observations for QLD | Other Formats
Station Details ID: 029038 Name: KOWANYAMA AIRPORT Lat: -15.48 Lon: 141.75 Height: 9.6 m
Data from the previous 72 hours. | See also: Recent months at Kowanyama
Date/Time
EST
Temp
°C
App
Temp
°C
Dew
Point
Rel
Hum
%
Delta-T
°C
Wind Press
QNH
hPa
Press
MSL
hPa
Rain
since 9 am
mm
Dir
 
Spd
km/h
Gust
km/h
Spd
kts
Gust
kts
19/07:00pm 27.8 32.2 22.1 71 3.8 ESE 2 6 1 3 1010.8 - 0.0
19/06:30pm 28.4 31.6 21.7 67 4.5 E 7 9 4 5 1010.4 - 0.0
19/06:00pm 29.6 32.4 20.5 58 6.0 E 6 7 3 4 1010.2 1010.1 0.0
19/05:30pm 30.3 32.6 19.9 53 6.8 ESE 7 11 4 6 1010.0 - 0.0
19/05:00pm 30.9 32.9 19.9 52 7.2 ESE 9 13 5 7 1009.8 - 0.0
19/04:30pm 31.3 32.5 19.0 48 8.0 E 11 19 6 10 1009.6 - 0.0
19/04:00pm 31.8 33.5 20.1 50 7.7 ESE 11 15 6 8 1009.5 - 0.0
19/03:30pm 31.2 31.4 18.5 46 8.2 E 15 22 8 12 1009.4 - 0.0
19/03:00pm 31.7 31.9 19.3 47 8.1 E 17 28 9 15 1009.5 1009.4 0.0
19/02:30pm 31.8 32.6 19.8 49 7.9 E 15 22 8 12 1009.7 - 0.0
19/02:00pm 31.7 32.7 20.3 50 7.6 E 15 20 8 11 1010.2 - 0.0
19/01:30pm 31.2 31.4 20.2 52 7.3 E 19 24 10 13 1010.5 - 0.0
19/01:00pm 31.0 31.9 20.0 52 7.3 E 15 24 8 13 1011.2 - 0.0
19/12:30pm 30.8 31.2 19.8 52 7.2 ENE 17 28 9 15 1011.7 - 0.0
19/12:00pm 29.9 29.9 19.0 52 7.1 E 17 28 9 15 1012.2 1012.1 0.0
19/11:30am 29.7 30.0 19.7 55 6.5 E 17 26 9 14 1012.7 - 0.0
19/11:00am 29.7 30.2 20.0 56 6.4 E 17 26 9 14 1013.3 - 0.0
19/10:30am 28.7 28.9 19.3 56 6.1 E 17 30 9 16 1013.5 - 0.0
19/10:00am 28.0 27.5 19.2 58 5.7 E 20 33 11 18 1013.5 - 0.0
19/09:30am 27.5 27.5 19.8 63 5.0 E 19 26 10 14 1013.5 - 0.0
19/09:00am 26.8 27.0 20.2 67 4.3 E 19 26 10 14 1013.5 1013.4 0.2
19/08:30am 26.3 27.7 21.1 73 3.4 E 15 26 8 14 1013.4 - 0.2
19/08:00am 25.5 28.1 21.2 77 2.8 E 9 17 5 9 1013.1 - 0.2
19/07:30am 24.5 26.8 20.6 79 2.5 E 9 13 5 7 1012.9 - 0.2
19/07:00am 23.8 26.4 20.5 82 2.1 E 7 11 4 6 1012.5 - 0.2
19/06:30am 23.5 26.3 20.4 83 2.0 E 6 9 3 5 1012.1 - 0.2
19/06:00am 23.6 26.5 20.7 84 1.9 E 6 9 3 5 1011.8 1011.7 0.2
19/05:30am 23.7 26.5 20.4 82 2.1 E 6 7 3 4 1011.8 - 0.2
19/05:00am 23.8 26.5 20.7 83 2.0 E 7 9 4 5 1011.6 - 0.2
19/04:30am 24.0 26.8 20.9 83 2.0 E 7 11 4 6 1011.5 - 0.2
19/04:00am 24.0 27.1 21.5 86 1.7 E 7 11 4 6 1011.6 - 0.2
19/03:30am 23.8 27.7 21.9 89 1.3 E 4 7 2 4 1011.8 - 0.2
19/03:00am 23.9 27.8 21.8 88 1.4 E 4 7 2 4 1012.0 1011.9 0.2
19/02:30am 23.9 27.5 22.0 89 1.3 SE 6 7 3 4 1012.2 - 0.2
19/02:00am 24.5 28.7 21.8 85 1.8 E 2 6 1 3 1012.3 - 0.2
19/01:30am 24.9 29.3 21.4 81 2.3 CALM 0 0 0 0 1012.8 - 0.2
19/01:00am 25.0 28.2 21.3 80 2.4 E 6 9 3 5 1012.9 - 0.2
19/12:30am 24.9 28.3 21.6 82 2.2 E 6 9 3 5 1013.3 - 0.2
19/12:00am 25.0 29.7 21.9 83 2.1 ESE 0 0 0 0 1013.4 1013.3 0.2
 
Date/Time
EST
Temp
°C
App
Temp
°C
Dew
Point
Rel
Hum
%
Delta-T
°C
Wind Press
QNH
hPa
Press
MSL
hPa
Rain
since 9 am
mm
Dir
 
Spd
km/h
Gust
km/h
Spd
kts
Gust
kts
18/11:30pm 25.1 29.1 21.4 80 2.4 E 2 7 1 4 1013.6 - 0.2
18/11:00pm 25.6 28.8 21.3 77 2.8 E 6 9 3 5 1013.7 - 0.2
18/10:30pm 25.8 28.4 21.2 76 3.0 E 9 15 5 8 1013.8 - 0.2
18/10:00pm 25.9 28.9 22.0 79 2.6 E 9 20 5 11 1013.9 - 0.2
18/09:30pm 25.4 29.0 22.1 82 2.2 E 6 9 3 5 1013.7 - 0.2
18/09:00pm 25.3 28.6 21.8 81 2.3 E 7 11 4 6 1013.6 1013.5 0.2
18/08:30pm 25.1 28.2 21.4 80 2.4 S 7 11 4 6 1013.3 - 0.2
18/08:00pm 25.3 28.4 22.8 86 1.7 SSE 11 15 6 8 1013.0 - 0.2
18/07:30pm 26.3 28.6 22.8 81 2.4 SSE 15 24 8 13 1012.7 - 0.0
18/07:00pm 28.2 32.0 22.7 72 3.7 SE 7 11 4 6 1011.7 - 0.0
18/06:30pm 28.5 31.9 22.7 71 3.9 SSW 9 17 5 9 1011.4 - 0.0
18/06:00pm 29.9 33.4 21.8 62 5.5 NNE 6 7 3 4 1010.8 1010.7 0.0
18/05:30pm 30.6 33.5 21.7 59 6.0 N 9 13 5 7 1010.5 - 0.0
18/05:00pm 31.5 33.6 21.7 56 6.6 NE 13 20 7 11 1010.2 - 0.0
18/04:30pm 32.0 33.4 20.3 50 7.8 E 13 19 7 10 1009.9 - 0.0
18/04:00pm 32.7 35.1 20.9 49 7.9 E 9 15 5 8 1009.8 - 0.0
18/03:30pm 32.5 35.7 22.3 55 7.0 ESE 9 17 5 9 1009.9 - 0.0
18/03:00pm 32.5 34.8 21.4 52 7.5 E 11 17 6 9 1010.0 1009.9 0.0
18/02:30pm 32.3 34.8 21.8 54 7.1 ESE 11 20 6 11 1010.2 - 0.0
18/02:00pm 32.6 35.8 22.4 55 7.0 E 9 15 5 8 1010.5 - 0.0
18/01:30pm 31.8 33.0 20.7 51 7.4 ESE 15 20 8 11 1010.8 - 0.0
18/01:00pm 31.9 33.7 21.1 52 7.2 ENE 13 20 7 11 1011.1 - 0.0
18/12:30pm 31.6 33.2 21.4 54 6.9 E 15 22 8 12 1011.3 - 0.0
18/12:00pm 30.9 31.9 21.7 58 6.2 ESE 19 30 10 16 1011.6 1011.5 0.0
18/11:30am 30.9 32.3 21.1 56 6.6 E 15 20 8 11 1012.3 - 0.0
18/11:00am 30.2 31.7 21.3 59 6.0 E 15 24 8 13 1012.7 - 0.0
18/10:30am 29.4 29.9 20.8 60 5.7 E 19 28 10 15 1012.8 - 0.0
18/10:00am 29.2 30.9 21.7 64 5.0 E 15 20 8 11 1013.2 - 0.0
18/09:30am 28.1 30.1 21.6 68 4.3 E 13 20 7 11 1013.2 - 0.0
18/09:00am 27.6 29.1 21.2 68 4.3 E 15 24 8 13 1013.0 1012.9 0.2
18/08:30am 27.3 29.1 21.8 72 3.7 E 15 24 8 13 1012.9 - 0.2
18/08:00am 26.4 29.2 21.6 75 3.2 E 9 17 5 9 1012.9 - 0.2
18/07:30am 25.8 29.0 21.7 78 2.7 E 7 13 4 7 1012.6 - 0.2
18/07:00am 25.1 28.2 21.4 80 2.4 ENE 7 11 4 6 1012.1 - 0.2
18/06:30am 25.2 28.4 21.3 79 2.6 E 6 11 3 6 1011.9 - 0.2
18/06:00am 25.4 28.1 21.3 78 2.7 ENE 9 13 5 7 1011.5 1011.4 0.2
18/05:30am 25.5 28.5 21.2 77 2.8 ENE 7 13 4 7 1011.4 - 0.2
18/05:00am 25.6 28.3 21.3 77 2.8 E 9 15 5 8 1011.1 - 0.2
18/04:30am 25.8 28.9 21.5 77 2.9 E 7 13 4 7 1011.1 - 0.2
18/04:00am 25.9 28.7 21.6 77 2.9 ENE 9 15 5 8 1010.7 - 0.2
18/03:30am 25.6 29.3 22.5 83 2.1 ENE 7 11 4 6 1010.8 - 0.2
18/03:00am 25.8 30.7 22.3 81 2.4 CALM 0 0 0 0 1011.2 1011.1 0.2
18/02:30am 26.1 29.9 22.4 80 2.5 E 6 7 3 4 1011.3 - 0.2
18/02:00am 26.0 31.2 22.9 83 2.1 CALM 0 6 0 3 1011.2 - 0.2
18/01:30am 26.0 30.9 23.1 84 2.0 SE 2 6 1 3 1011.2 - 0.2
18/01:00am 26.3 29.8 22.8 81 2.4 SE 9 11 5 6 1011.7 - 0.2
18/12:30am 26.7 30.0 22.5 78 2.8 E 9 17 5 9 1012.1 - 0.2
18/12:00am 26.3 30.2 23.0 82 2.2 ESE 7 11 4 6 1012.5 1012.4 0.2
 
Date/Time
EST
Temp
°C
App
Temp
°C
Dew
Point
Rel
Hum
%
Delta-T
°C
Wind Press
QNH
hPa
Press
MSL
hPa
Rain
since 9 am
mm
Dir
 
Spd
km/h
Gust
km/h
Spd
kts
Gust
kts
17/11:30pm 26.2 30.3 23.3 84 2.0 E 7 11 4 6 1012.8 - 0.2
17/11:00pm 26.4 30.6 23.1 82 2.2 ESE 6 9 3 5 1012.7 - 0.2
17/10:30pm 26.5 30.6 23.0 81 2.4 ESE 6 7 3 4 1012.5 - 0.2
17/10:00pm 26.7 30.3 23.0 80 2.5 SSE 9 13 5 7 1012.6 - 0.2
17/09:30pm 26.8 30.1 22.6 78 2.8 SSE 9 15 5 8 1012.6 - 0.2
17/09:00pm 27.0 30.3 22.6 77 3.0 SSE 9 13 5 7 1012.4 1012.3 0.2
17/08:30pm 27.0 30.2 22.4 76 3.1 S 9 11 5 6 1012.1 - 0.2
17/08:00pm 27.1 30.8 22.5 76 3.1 SSE 7 11 4 6 1011.8 - 0.2
17/07:30pm 27.4 30.7 22.6 75 3.2 SSE 9 11 5 6 1011.4 - 0.2
17/07:00pm 27.9 30.6 22.1 70 3.9 SSE 11 15 6 8 1011.1 - 0.2
17/06:30pm 28.3 31.2 22.5 71 3.9 SSE 11 15 6 8 1010.7 - 0.2
17/06:00pm 28.9 31.1 22.6 69 4.3 S 15 20 8 11 1010.3 1010.2 0.2
17/05:30pm 30.6 34.2 23.0 64 5.2 SE 9 13 5 7 1010.1 - 0.2
17/05:00pm 30.8 32.5 22.4 61 5.7 SE 17 19 9 10 1009.8 - 0.2
17/04:30pm 31.5 34.9 23.3 61 5.7 SE 11 17 6 9 1009.8 - 0.2
17/04:00pm 31.8 34.5 22.8 59 6.2 ESE 13 19 7 10 1009.8 - 0.2
17/03:30pm 31.6 34.5 23.2 61 5.8 ESE 13 19 7 10 1009.8 - 0.2
17/03:00pm 31.8 33.4 22.2 56 6.5 E 17 24 9 13 1010.0 1009.9 0.2
17/02:30pm 31.5 32.9 21.9 56 6.5 E 17 24 9 13 1010.1 - 0.2
17/02:00pm 31.5 33.3 22.5 59 6.1 E 17 28 9 15 1010.3 - 0.2
17/01:30pm 30.9 34.1 23.0 62 5.4 E 11 17 6 9 1010.5 - 0.2
17/01:00pm 29.9 33.2 23.8 70 4.2 E 13 20 7 11 1010.9 - 0.2
17/12:30pm 28.9 30.9 22.9 70 4.1 E 17 24 9 13 1011.4 - 0.2
17/12:00pm 28.4 31.5 23.5 75 3.4 E 13 20 7 11 1012.0 1011.9 0.2
17/11:30am 27.5 30.4 23.1 77 3.0 ESE 13 17 7 9 1012.6 - 0.2
17/11:00am 26.8 30.9 23.3 81 2.4 E 7 13 4 7 1013.0 - 0.2
17/10:30am 26.8 31.3 23.9 84 2.0 NE 7 11 4 6 1013.8 - 0.2
17/10:00am 26.3 31.0 23.4 84 2.0 ENE 4 7 2 4 1014.2 - 0.2
17/09:30am 25.6 30.1 23.6 89 1.4 NE 6 9 3 5 1014.4 - 0.2
17/09:00am 25.4 30.6 23.6 90 1.2 NE 2 7 1 4 1014.4 1014.3 32.2
17/08:30am 24.9 30.2 23.0 89 1.3 CALM 0 0 0 0 1014.2 - 32.2
17/08:00am 24.6 29.8 22.8 90 1.2 CALM 0 0 0 0 1013.9 - 32.0
17/07:30am 24.5 29.4 23.1 92 0.9 E 2 6 1 3 1013.5 - 32.0
17/07:00am 24.4 29.3 23.0 92 0.9 E 2 7 1 4 1013.3 - 32.0
17/06:30am 24.4 29.7 23.0 92 0.9 CALM 0 0 0 0 1012.7 - 32.0
17/06:00am 24.4 29.7 23.0 92 0.9 CALM 0 0 0 0 1012.3 1012.2 32.0
17/05:30am 24.3 28.8 22.9 92 0.9 ENE 4 9 2 5 1011.9 - 32.0
17/05:00am 24.2 27.9 22.6 91 1.1 NE 7 13 4 7 1011.4 - 32.0
17/04:30am 24.3 28.0 22.6 90 1.1 NE 7 13 4 7 1011.2 - 32.0
17/04:00am 24.3 27.7 22.7 91 1.1 ENE 9 15 5 8 1011.2 - 32.0
17/03:30am 24.1 26.8 22.2 89 1.3 ENE 11 15 6 8 1011.2 - 32.0
17/03:00am 24.2 27.0 22.3 89 1.3 ENE 11 19 6 10 1011.4 1011.3 31.6
17/02:30am 23.3 26.6 21.9 92 0.9 NE 7 13 4 7 1011.5 - 30.6
17/02:00am 24.3 28.3 23.1 93 0.8 NNE 7 13 4 7 1011.6 - 28.6
17/01:30am 24.4 30.2 23.9 97 0.3 CALM 0 7 0 4 1011.7 - 26.0
17/01:00am 24.3 28.9 23.8 97 0.3 NNW 6 9 3 5 1011.9 - 24.2
17/12:30am 24.4 28.9 23.7 96 0.5 W 6 7 3 4 1012.4 - 22.4
17/12:00am 24.4 30.1 23.7 96 0.5 CALM 0 2 0 1 1012.6 1012.5 17.2
 
Date/Time
EST
Temp
°C
App
Temp
°C
Dew
Point
Rel
Hum
%
Delta-T
°C
Wind Press
QNH
hPa
Press
MSL
hPa
Rain
since 9 am
mm
Dir
 
Spd
km/h
Gust
km/h
Spd
kts
Gust
kts
16/11:30pm 24.5 29.9 23.8 96 0.5 N 2 6 1 3 1012.4 - 15.2
16/11:00pm 24.6 29.5 23.7 95 0.6 ESE 4 9 2 5 1012.7 - 14.2
16/10:30pm 24.5 30.1 23.6 95 0.6 CALM 0 0 0 0 1012.5 - 13.4
16/10:00pm 24.3 28.6 23.3 94 0.7 NNE 6 7 3 4 1012.5 - 12.8
16/09:30pm 24.3 28.5 23.1 93 0.8 SE 6 9 3 5 1012.5 - 11.0
16/09:00pm 24.7 27.0 23.5 93 0.8 ESE 17 22 9 12 1012.1 1012.0 10.4
16/08:30pm 24.7 28.3 23.8 95 0.6 NE 11 17 6 9 1011.9 - 8.4
16/08:00pm 25.8 28.0 23.3 86 1.7 ENE 17 28 9 15 1011.2 - 0.0
16/07:30pm 26.9 31.2 24.2 85 1.9 S 9 13 5 7 1010.1 - 0.0

Other Formats:

Comma delimited format used in spreadsheet applications
http://www.bom.gov.au/fwo/IDQ60801/IDQ60801.94268.axf

JavaScript Object Notation format (JSON) in row-major order
http://www.bom.gov.au/fwo/IDQ60801/IDQ60801.94268.json